sensor_id;sensor_type;location;lat;lon;timestamp;temperature;humidity
12276;DHT22;6200;48.144;11.424;2023-07-20T00:01:19;21.90;84.00
12276;DHT22;6200;48.144;11.424;2023-07-20T00:03:45;21.90;83.70
12276;DHT22;6200;48.144;11.424;2023-07-20T00:06:10;21.90;83.40
12276;DHT22;6200;48.144;11.424;2023-07-20T00:08:36;21.90;84.00
12276;DHT22;6200;48.144;11.424;2023-07-20T00:11:01;21.80;84.50
12276;DHT22;6200;48.144;11.424;2023-07-20T00:13:27;21.80;84.30
12276;DHT22;6200;48.144;11.424;2023-07-20T00:15:53;21.80;85.70
12276;DHT22;6200;48.144;11.424;2023-07-20T00:18:18;21.70;84.10
12276;DHT22;6200;48.144;11.424;2023-07-20T00:20:46;21.70;84.20
12276;DHT22;6200;48.144;11.424;2023-07-20T00:23:12;21.70;85.00
12276;DHT22;6200;48.144;11.424;2023-07-20T00:25:37;21.70;84.50
12276;DHT22;6200;48.144;11.424;2023-07-20T00:28:03;21.60;85.00
12276;DHT22;6200;48.144;11.424;2023-07-20T00:30:29;21.60;85.00
12276;DHT22;6200;48.144;11.424;2023-07-20T00:32:54;21.60;85.30
12276;DHT22;6200;48.144;11.424;2023-07-20T00:35:20;21.50;86.10
12276;DHT22;6200;48.144;11.424;2023-07-20T00:37:45;21.50;85.90
12276;DHT22;6200;48.144;11.424;2023-07-20T00:40:11;21.60;85.60
12276;DHT22;6200;48.144;11.424;2023-07-20T00:42:36;21.60;85.00
12276;DHT22;6200;48.144;11.424;2023-07-20T00:45:02;21.60;86.00
12276;DHT22;6200;48.144;11.424;2023-07-20T00:47:28;21.50;86.10
12276;DHT22;6200;48.144;11.424;2023-07-20T00:49:54;21.50;86.60
12276;DHT22;6200;48.144;11.424;2023-07-20T00:52:21;21.40;87.20
12276;DHT22;6200;48.144;11.424;2023-07-20T00:54:48;21.40;86.30
12276;DHT22;6200;48.144;11.424;2023-07-20T00:57:15;21.40;87.20
12276;DHT22;6200;48.144;11.424;2023-07-20T00:59:41;21.40;86.60
12276;DHT22;6200;48.144;11.424;2023-07-20T01:02:07;21.30;87.20
12276;DHT22;6200;48.144;11.424;2023-07-20T01:04:33;21.30;86.50
12276;DHT22;6200;48.144;11.424;2023-07-20T01:07:22;21.30;87.00
12276;DHT22;6200;48.144;11.424;2023-07-20T01:10:01;21.30;87.50
12276;DHT22;6200;48.144;11.424;2023-07-20T01:13:04;21.30;87.60
12276;DHT22;6200;48.144;11.424;2023-07-20T01:15:22;21.30;87.50
12276;DHT22;6200;48.144;11.424;2023-07-20T01:17:48;21.30;87.10
12276;DHT22;6200;48.144;11.424;2023-07-20T01:20:14;21.30;87.40
12276;DHT22;6200;48.144;11.424;2023-07-20T01:25:58;21.20;86.80
12276;DHT22;6200;48.144;11.424;2023-07-20T01:31:27;21.10;87.50
12276;DHT22;6200;48.144;11.424;2023-07-20T01:33:58;21.10;87.90
12276;DHT22;6200;48.144;11.424;2023-07-20T01:36:28;21.10;88.10
12276;DHT22;6200;48.144;11.424;2023-07-20T01:38:54;21.00;88.40
12276;DHT22;6200;48.144;11.424;2023-07-20T01:41:21;21.00;89.70
12276;DHT22;6200;48.144;11.424;2023-07-20T01:43:47;21.00;89.60
12276;DHT22;6200;48.144;11.424;2023-07-20T01:46:12;21.00;88.30
12276;DHT22;6200;48.144;11.424;2023-07-20T01:48:38;21.00;87.70
12276;DHT22;6200;48.144;11.424;2023-07-20T01:51:04;21.00;88.20
12276;DHT22;6200;48.144;11.424;2023-07-20T01:53:29;20.90;88.10
12276;DHT22;6200;48.144;11.424;2023-07-20T01:55:56;21.00;87.50
12276;DHT22;6200;48.144;11.424;2023-07-20T01:58:21;21.00;87.30
12276;DHT22;6200;48.144;11.424;2023-07-20T02:00:47;21.00;87.20
12276;DHT22;6200;48.144;11.424;2023-07-20T02:03:12;21.00;87.90
12276;DHT22;6200;48.144;11.424;2023-07-20T02:05:38;20.90;87.20
12276;DHT22;6200;48.144;11.424;2023-07-20T02:08:04;20.90;86.60
12276;DHT22;6200;48.144;11.424;2023-07-20T02:10:29;20.90;86.40
12276;DHT22;6200;48.144;11.424;2023-07-20T02:12:55;20.90;86.00
12276;DHT22;6200;48.144;11.424;2023-07-20T02:15:21;21.00;85.70
12276;DHT22;6200;48.144;11.424;2023-07-20T02:17:46;19.60;84.90
12276;DHT22;6200;48.144;11.424;2023-07-20T02:20:12;20.90;86.10
12276;DHT22;6200;48.144;11.424;2023-07-20T02:22:38;20.90;87.20
12276;DHT22;6200;48.144;11.424;2023-07-20T02:25:05;20.80;86.70
12276;DHT22;6200;48.144;11.424;2023-07-20T02:27:35;20.90;86.20
12276;DHT22;6200;48.144;11.424;2023-07-20T02:30:02;20.90;85.20
12276;DHT22;6200;48.144;11.424;2023-07-20T02:32:28;20.90;85.60
12276;DHT22;6200;48.144;11.424;2023-07-20T02:34:54;20.90;85.40
12276;DHT22;6200;48.144;11.424;2023-07-20T02:37:19;20.90;85.50
12276;DHT22;6200;48.144;11.424;2023-07-20T02:39:45;20.80;85.80
12276;DHT22;6200;48.144;11.424;2023-07-20T02:42:10;20.80;86.20
12276;DHT22;6200;48.144;11.424;2023-07-20T02:44:36;20.70;86.10
12276;DHT22;6200;48.144;11.424;2023-07-20T02:47:02;20.70;86.50
12276;DHT22;6200;48.144;11.424;2023-07-20T02:49:27;20.70;86.50
12276;DHT22;6200;48.144;11.424;2023-07-20T02:51:53;20.70;86.20
12276;DHT22;6200;48.144;11.424;2023-07-20T02:54:18;20.70;86.10
12276;DHT22;6200;48.144;11.424;2023-07-20T02:56:44;20.70;87.50
12276;DHT22;6200;48.144;11.424;2023-07-20T02:59:10;20.70;89.40
12276;DHT22;6200;48.144;11.424;2023-07-20T03:01:35;20.70;90.20
12276;DHT22;6200;48.144;11.424;2023-07-20T03:04:01;20.60;91.10
12276;DHT22;6200;48.144;11.424;2023-07-20T03:06:27;20.50;91.40
12276;DHT22;6200;48.144;11.424;2023-07-20T03:08:53;20.40;91.30
12276;DHT22;6200;48.144;11.424;2023-07-20T03:11:20;20.40;92.20
12276;DHT22;6200;48.144;11.424;2023-07-20T03:13:46;20.40;91.50
12276;DHT22;6200;48.144;11.424;2023-07-20T03:16:17;20.40;91.90
12276;DHT22;6200;48.144;11.424;2023-07-20T03:18:43;20.30;92.60
12276;DHT22;6200;48.144;11.424;2023-07-20T03:21:10;20.20;92.30
12276;DHT22;6200;48.144;11.424;2023-07-20T03:23:41;20.20;92.50
12276;DHT22;6200;48.144;11.424;2023-07-20T03:26:07;20.10;92.60
12276;DHT22;6200;48.144;11.424;2023-07-20T03:28:37;20.10;95.30
12276;DHT22;6200;48.144;11.424;2023-07-20T03:31:05;19.90;97.50
12276;DHT22;6200;48.144;11.424;2023-07-20T03:33:32;19.70;98.90
12276;DHT22;6200;48.144;11.424;2023-07-20T03:35:57;19.60;99.80
12276;DHT22;6200;48.144;11.424;2023-07-20T03:38:24;19.50;99.90
12276;DHT22;6200;48.144;11.424;2023-07-20T03:40:58;19.40;99.90
12276;DHT22;6200;48.144;11.424;2023-07-20T03:43:25;19.30;99.90
12276;DHT22;6200;48.144;11.424;2023-07-20T03:45:51;19.30;99.90
12276;DHT22;6200;48.144;11.424;2023-07-20T03:48:21;19.30;99.90
12276;DHT22;6200;48.144;11.424;2023-07-20T03:50:48;19.10;99.90
12276;DHT22;6200;48.144;11.424;2023-07-20T03:53:15;19.10;99.90
12276;DHT22;6200;48.144;11.424;2023-07-20T03:55:41;19.00;99.90
12276;DHT22;6200;48.144;11.424;2023-07-20T03:58:07;18.90;99.90
12276;DHT22;6200;48.144;11.424;2023-07-20T04:00:34;18.90;99.90
12276;DHT22;6200;48.144;11.424;2023-07-20T04:03:00;18.80;99.90
12276;DHT22;6200;48.144;11.424;2023-07-20T04:05:26;18.70;99.90
12276;DHT22;6200;48.144;11.424;2023-07-20T04:07:52;18.70;99.90
12276;DHT22;6200;48.144;11.424;2023-07-20T04:10:18;20.60;99.90
12276;DHT22;6200;48.144;11.424;2023-07-20T04:12:45;18.70;99.90
12276;DHT22;6200;48.144;11.424;2023-07-20T04:15:12;18.60;99.90
12276;DHT22;6200;48.144;11.424;2023-07-20T04:17:38;18.70;99.90
12276;DHT22;6200;48.144;11.424;2023-07-20T04:20:04;18.60;99.90
12276;DHT22;6200;48.144;11.424;2023-07-20T04:22:31;18.50;99.90
12276;DHT22;6200;48.144;11.424;2023-07-20T04:24:57;18.50;99.90
12276;DHT22;6200;48.144;11.424;2023-07-20T04:27:22;18.50;99.90
12276;DHT22;6200;48.144;11.424;2023-07-20T04:29:48;18.50;99.90
12276;DHT22;6200;48.144;11.424;2023-07-20T04:32:13;18.50;99.90
12276;DHT22;6200;48.144;11.424;2023-07-20T04:34:39;17.70;99.90
12276;DHT22;6200;48.144;11.424;2023-07-20T04:37:04;18.50;99.90
12276;DHT22;6200;48.144;11.424;2023-07-20T04:39:30;18.50;99.90
12276;DHT22;6200;48.144;11.424;2023-07-20T04:41:56;18.50;99.90
12276;DHT22;6200;48.144;11.424;2023-07-20T04:44:22;18.50;99.90
12276;DHT22;6200;48.144;11.424;2023-07-20T04:46:47;18.40;99.90
12276;DHT22;6200;48.144;11.424;2023-07-20T04:49:13;18.40;99.90
12276;DHT22;6200;48.144;11.424;2023-07-20T04:51:39;18.40;99.90
12276;DHT22;6200;48.144;11.424;2023-07-20T04:54:04;18.40;99.90
12276;DHT22;6200;48.144;11.424;2023-07-20T04:56:30;18.50;99.90
12276;DHT22;6200;48.144;11.424;2023-07-20T04:58:56;18.50;99.90
12276;DHT22;6200;48.144;11.424;2023-07-20T05:01:22;18.50;99.90
12276;DHT22;6200;48.144;11.424;2023-07-20T05:03:48;18.50;99.90
12276;DHT22;6200;48.144;11.424;2023-07-20T05:06:14;18.50;99.90
12276;DHT22;6200;48.144;11.424;2023-07-20T05:08:40;18.50;99.90
12276;DHT22;6200;48.144;11.424;2023-07-20T05:11:05;18.50;99.90
12276;DHT22;6200;48.144;11.424;2023-07-20T05:13:32;18.60;99.90
12276;DHT22;6200;48.144;11.424;2023-07-20T05:15:58;18.60;99.90
12276;DHT22;6200;48.144;11.424;2023-07-20T05:18:23;18.60;99.90
12276;DHT22;6200;48.144;11.424;2023-07-20T05:20:49;18.60;99.90
12276;DHT22;6200;48.144;11.424;2023-07-20T05:23:18;18.70;99.90
12276;DHT22;6200;48.144;11.424;2023-07-20T05:25:43;18.70;99.90
12276;DHT22;6200;48.144;11.424;2023-07-20T05:28:09;18.70;99.90
12276;DHT22;6200;48.144;11.424;2023-07-20T05:30:35;18.70;99.90
12276;DHT22;6200;48.144;11.424;2023-07-20T05:33:00;18.70;99.90
12276;DHT22;6200;48.144;11.424;2023-07-20T05:35:26;18.80;99.90
12276;DHT22;6200;48.144;11.424;2023-07-20T05:37:52;18.80;98.90
12276;DHT22;6200;48.144;11.424;2023-07-20T05:40:17;18.80;99.20
12276;DHT22;6200;48.144;11.424;2023-07-20T05:42:48;18.80;99.40
12276;DHT22;6200;48.144;11.424;2023-07-20T05:45:14;18.90;97.80
12276;DHT22;6200;48.144;11.424;2023-07-20T05:47:40;18.90;97.00
12276;DHT22;6200;48.144;11.424;2023-07-20T05:50:06;18.90;97.20
12276;DHT22;6200;48.144;11.424;2023-07-20T05:52:32;19.00;96.70
12276;DHT22;6200;48.144;11.424;2023-07-20T05:54:57;19.00;96.10
12276;DHT22;6200;48.144;11.424;2023-07-20T05:57:23;19.00;96.40
12276;DHT22;6200;48.144;11.424;2023-07-20T05:59:49;19.10;96.70
12276;DHT22;6200;48.144;11.424;2023-07-20T06:02:15;19.20;96.60
12276;DHT22;6200;48.144;11.424;2023-07-20T06:04:41;19.20;96.70
12276;DHT22;6200;48.144;11.424;2023-07-20T06:07:06;19.30;97.10
12276;DHT22;6200;48.144;11.424;2023-07-20T06:09:33;19.40;95.30
12276;DHT22;6200;48.144;11.424;2023-07-20T06:11:59;19.40;95.30
12276;DHT22;6200;48.144;11.424;2023-07-20T06:14:25;19.50;94.50
12276;DHT22;6200;48.144;11.424;2023-07-20T06:16:50;19.50;94.40
12276;DHT22;6200;48.144;11.424;2023-07-20T06:19:16;19.60;95.00
12276;DHT22;6200;48.144;11.424;2023-07-20T06:21:41;19.60;94.30
12276;DHT22;6200;48.144;11.424;2023-07-20T06:24:07;19.60;94.10
12276;DHT22;6200;48.144;11.424;2023-07-20T06:26:33;19.70;94.60
12276;DHT22;6200;48.144;11.424;2023-07-20T06:29:07;19.80;94.90
12276;DHT22;6200;48.144;11.424;2023-07-20T06:31:33;19.90;93.80
12276;DHT22;6200;48.144;11.424;2023-07-20T06:33:59;19.40;93.60
12276;DHT22;6200;48.144;11.424;2023-07-20T06:36:24;20.00;93.80
12276;DHT22;6200;48.144;11.424;2023-07-20T06:38:51;20.00;93.70
12276;DHT22;6200;48.144;11.424;2023-07-20T06:41:17;20.00;93.70
12276;DHT22;6200;48.144;11.424;2023-07-20T06:43:43;20.00;93.80
12276;DHT22;6200;48.144;11.424;2023-07-20T06:46:08;20.00;93.10
12276;DHT22;6200;48.144;11.424;2023-07-20T06:48:34;20.00;92.30
12276;DHT22;6200;48.144;11.424;2023-07-20T06:50:59;20.30;92.10
12276;DHT22;6200;48.144;11.424;2023-07-20T06:53:25;20.60;91.80
12276;DHT22;6200;48.144;11.424;2023-07-20T06:55:50;20.60;92.20
12276;DHT22;6200;48.144;11.424;2023-07-20T06:58:16;20.70;91.70
12276;DHT22;6200;48.144;11.424;2023-07-20T07:00:42;20.80;91.50
12276;DHT22;6200;48.144;11.424;2023-07-20T07:03:08;21.10;91.80
12276;DHT22;6200;48.144;11.424;2023-07-20T07:05:36;21.80;90.20
12276;DHT22;6200;48.144;11.424;2023-07-20T07:08:02;22.90;86.50
12276;DHT22;6200;48.144;11.424;2023-07-20T07:10:28;23.90;84.50
12276;DHT22;6200;48.144;11.424;2023-07-20T07:12:53;24.90;82.00
12276;DHT22;6200;48.144;11.424;2023-07-20T07:15:19;25.50;78.00
12276;DHT22;6200;48.144;11.424;2023-07-20T07:17:44;25.80;74.10
12276;DHT22;6200;48.144;11.424;2023-07-20T07:20:10;25.70;76.20
12276;DHT22;6200;48.144;11.424;2023-07-20T07:22:36;25.40;75.30
12276;DHT22;6200;48.144;11.424;2023-07-20T07:25:01;25.10;74.30
12276;DHT22;6200;48.144;11.424;2023-07-20T07:27:28;24.80;75.40
12276;DHT22;6200;48.144;11.424;2023-07-20T07:29:53;24.50;76.10
12276;DHT22;6200;48.144;11.424;2023-07-20T07:32:20;24.10;78.80
12276;DHT22;6200;48.144;11.424;2023-07-20T07:34:46;23.80;80.70
12276;DHT22;6200;48.144;11.424;2023-07-20T07:37:13;23.60;79.40
12276;DHT22;6200;48.144;11.424;2023-07-20T07:39:39;23.50;81.80
12276;DHT22;6200;48.144;11.424;2023-07-20T07:42:05;23.30;79.10
12276;DHT22;6200;48.144;11.424;2023-07-20T07:44:31;23.10;81.40
12276;DHT22;6200;48.144;11.424;2023-07-20T07:46:57;23.00;79.70
12276;DHT22;6200;48.144;11.424;2023-07-20T07:49:23;23.10;77.60
12276;DHT22;6200;48.144;11.424;2023-07-20T07:51:48;23.00;79.30
12276;DHT22;6200;48.144;11.424;2023-07-20T07:54:14;22.90;78.90
12276;DHT22;6200;48.144;11.424;2023-07-20T07:56:39;22.90;82.40
12276;DHT22;6200;48.144;11.424;2023-07-20T07:59:06;22.80;80.10
12276;DHT22;6200;48.144;11.424;2023-07-20T08:01:32;22.80;83.40
12276;DHT22;6200;48.144;11.424;2023-07-20T08:03:57;22.80;82.70
12276;DHT22;6200;48.144;11.424;2023-07-20T08:06:23;22.90;84.30
12276;DHT22;6200;48.144;11.424;2023-07-20T08:08:49;23.00;83.70
12276;DHT22;6200;48.144;11.424;2023-07-20T08:11:15;23.00;78.40
12276;DHT22;6200;48.144;11.424;2023-07-20T08:13:41;22.90;78.50
12276;DHT22;6200;48.144;11.424;2023-07-20T08:16:07;23.10;77.30
12276;DHT22;6200;48.144;11.424;2023-07-20T08:18:32;23.20;78.30
12276;DHT22;6200;48.144;11.424;2023-07-20T08:20:58;23.20;78.90
12276;DHT22;6200;48.144;11.424;2023-07-20T08:23:24;23.20;80.50
12276;DHT22;6200;48.144;11.424;2023-07-20T08:25:49;23.20;76.90
12276;DHT22;6200;48.144;11.424;2023-07-20T08:28:16;23.30;76.60
12276;DHT22;6200;48.144;11.424;2023-07-20T08:30:47;23.30;76.60
12276;DHT22;6200;48.144;11.424;2023-07-20T08:33:14;23.20;76.80
12276;DHT22;6200;48.144;11.424;2023-07-20T08:35:39;23.20;77.90
12276;DHT22;6200;48.144;11.424;2023-07-20T08:38:05;23.20;78.50
12276;DHT22;6200;48.144;11.424;2023-07-20T08:40:40;23.20;78.80
12276;DHT22;6200;48.144;11.424;2023-07-20T08:43:06;23.10;78.40
12276;DHT22;6200;48.144;11.424;2023-07-20T08:45:36;23.10;77.40
12276;DHT22;6200;48.144;11.424;2023-07-20T08:48:05;23.10;76.10
12276;DHT22;6200;48.144;11.424;2023-07-20T08:50:32;23.10;75.60
12276;DHT22;6200;48.144;11.424;2023-07-20T08:52:59;23.10;75.60
12276;DHT22;6200;48.144;11.424;2023-07-20T08:55:28;23.30;75.00
12276;DHT22;6200;48.144;11.424;2023-07-20T08:57:55;23.30;74.20
12276;DHT22;6200;48.144;11.424;2023-07-20T09:00:22;23.40;75.10
12276;DHT22;6200;48.144;11.424;2023-07-20T09:02:50;23.40;74.20
12276;DHT22;6200;48.144;11.424;2023-07-20T09:05:17;23.30;77.10
12276;DHT22;6200;48.144;11.424;2023-07-20T09:07:43;23.40;77.20
12276;DHT22;6200;48.144;11.424;2023-07-20T09:10:09;23.40;77.30
12276;DHT22;6200;48.144;11.424;2023-07-20T09:12:38;23.60;74.40
12276;DHT22;6200;48.144;11.424;2023-07-20T09:15:05;23.70;72.90
12276;DHT22;6200;48.144;11.424;2023-07-20T09:17:31;23.80;74.20
12276;DHT22;6200;48.144;11.424;2023-07-20T09:19:56;23.90;76.20
12276;DHT22;6200;48.144;11.424;2023-07-20T09:22:29;24.20;72.60
12276;DHT22;6200;48.144;11.424;2023-07-20T09:24:54;24.50;72.10
12276;DHT22;6200;48.144;11.424;2023-07-20T09:27:20;24.80;70.90
12276;DHT22;6200;48.144;11.424;2023-07-20T09:29:50;24.90;71.00
12276;DHT22;6200;48.144;11.424;2023-07-20T09:32:18;25.00;71.60
12276;DHT22;6200;48.144;11.424;2023-07-20T09:34:45;24.70;73.50
12276;DHT22;6200;48.144;11.424;2023-07-20T09:37:11;24.80;72.80
12276;DHT22;6200;48.144;11.424;2023-07-20T09:39:45;24.90;72.50
12276;DHT22;6200;48.144;11.424;2023-07-20T09:42:12;25.00;72.60
12276;DHT22;6200;48.144;11.424;2023-07-20T09:44:45;25.20;70.90
12276;DHT22;6200;48.144;11.424;2023-07-20T09:47:11;25.10;73.00
12276;DHT22;6200;48.144;11.424;2023-07-20T09:49:40;25.00;70.80
12276;DHT22;6200;48.144;11.424;2023-07-20T09:52:08;25.00;70.70
12276;DHT22;6200;48.144;11.424;2023-07-20T09:54:34;25.00;71.90
12276;DHT22;6200;48.144;11.424;2023-07-20T09:57:00;24.90;71.30
12276;DHT22;6200;48.144;11.424;2023-07-20T09:59:28;24.80;70.70
12276;DHT22;6200;48.144;11.424;2023-07-20T10:01:53;24.80;74.50
12276;DHT22;6200;48.144;11.424;2023-07-20T10:04:23;25.00;71.00
12276;DHT22;6200;48.144;11.424;2023-07-20T10:06:50;25.20;70.90
12276;DHT22;6200;48.144;11.424;2023-07-20T10:09:18;25.50;71.20
12276;DHT22;6200;48.144;11.424;2023-07-20T10:11:49;25.70;72.60
12276;DHT22;6200;48.144;11.424;2023-07-20T10:14:19;25.70;69.70
12276;DHT22;6200;48.144;11.424;2023-07-20T10:16:50;25.70;70.30
12276;DHT22;6200;48.144;11.424;2023-07-20T10:19:30;25.50;69.90
12276;DHT22;6200;48.144;11.424;2023-07-20T10:22:13;25.50;71.30
12276;DHT22;6200;48.144;11.424;2023-07-20T10:24:39;25.40;69.40
12276;DHT22;6200;48.144;11.424;2023-07-20T10:27:06;25.50;71.50
12276;DHT22;6200;48.144;11.424;2023-07-20T10:29:32;25.30;72.10
12276;DHT22;6200;48.144;11.424;2023-07-20T10:31:58;25.30;72.10
12276;DHT22;6200;48.144;11.424;2023-07-20T10:34:25;25.10;70.60
12276;DHT22;6200;48.144;11.424;2023-07-20T10:36:50;25.20;68.80
12276;DHT22;6200;48.144;11.424;2023-07-20T10:39:46;25.20;70.20
12276;DHT22;6200;48.144;11.424;2023-07-20T10:42:12;25.10;71.00
12276;DHT22;6200;48.144;11.424;2023-07-20T10:44:40;25.10;70.70
12276;DHT22;6200;48.144;11.424;2023-07-20T10:47:10;25.20;71.00
12276;DHT22;6200;48.144;11.424;2023-07-20T10:49:59;25.30;70.20
12276;DHT22;6200;48.144;11.424;2023-07-20T10:52:39;25.40;70.80
12276;DHT22;6200;48.144;11.424;2023-07-20T10:55:14;25.50;70.00
12276;DHT22;6200;48.144;11.424;2023-07-20T10:57:41;25.60;69.20
12276;DHT22;6200;48.144;11.424;2023-07-20T11:00:08;25.70;68.10
12276;DHT22;6200;48.144;11.424;2023-07-20T11:02:47;25.70;68.00
12276;DHT22;6200;48.144;11.424;2023-07-20T11:05:36;25.70;68.80
12276;DHT22;6200;48.144;11.424;2023-07-20T11:08:40;25.70;69.10
12276;DHT22;6200;48.144;11.424;2023-07-20T11:11:22;25.70;69.70
12276;DHT22;6200;48.144;11.424;2023-07-20T11:19:05;26.00;70.20
12276;DHT22;6200;48.144;11.424;2023-07-20T11:21:41;26.10;68.70
12276;DHT22;6200;48.144;11.424;2023-07-20T11:24:07;26.30;67.00
12276;DHT22;6200;48.144;11.424;2023-07-20T11:26:45;26.50;66.20
12276;DHT22;6200;48.144;11.424;2023-07-20T11:29:11;26.50;66.50
12276;DHT22;6200;48.144;11.424;2023-07-20T11:31:38;26.50;66.20
12276;DHT22;6200;48.144;11.424;2023-07-20T11:34:04;26.40;65.40
12276;DHT22;6200;48.144;11.424;2023-07-20T11:36:30;26.30;66.30
12276;DHT22;6200;48.144;11.424;2023-07-20T11:38:56;26.20;66.90
12276;DHT22;6200;48.144;11.424;2023-07-20T11:41:22;26.10;67.00
12276;DHT22;6200;48.144;11.424;2023-07-20T11:43:47;26.00;65.90
12276;DHT22;6200;48.144;11.424;2023-07-20T11:46:13;26.00;67.70
12276;DHT22;6200;48.144;11.424;2023-07-20T11:48:39;25.90;68.10
12276;DHT22;6200;48.144;11.424;2023-07-20T11:51:05;25.90;66.80
12276;DHT22;6200;48.144;11.424;2023-07-20T11:53:31;25.80;67.30
12276;DHT22;6200;48.144;11.424;2023-07-20T11:55:59;25.90;69.00
12276;DHT22;6200;48.144;11.424;2023-07-20T11:58:24;25.90;67.90
12276;DHT22;6200;48.144;11.424;2023-07-20T12:00:55;26.00;68.10
12276;DHT22;6200;48.144;11.424;2023-07-20T12:03:21;26.10;68.30
12276;DHT22;6200;48.144;11.424;2023-07-20T12:05:46;26.40;67.80
12276;DHT22;6200;48.144;11.424;2023-07-20T12:08:12;26.60;67.80
12276;DHT22;6200;48.144;11.424;2023-07-20T12:10:39;26.90;67.70
12276;DHT22;6200;48.144;11.424;2023-07-20T12:13:10;27.10;66.40
12276;DHT22;6200;48.144;11.424;2023-07-20T12:15:37;27.50;65.20
12276;DHT22;6200;48.144;11.424;2023-07-20T12:18:03;27.80;62.80
12276;DHT22;6200;48.144;11.424;2023-07-20T12:20:36;28.20;63.50
12276;DHT22;6200;48.144;11.424;2023-07-20T12:23:07;28.50;62.40
12276;DHT22;6200;48.144;11.424;2023-07-20T12:28:11;28.60;63.80
12276;DHT22;6200;48.144;11.424;2023-07-20T12:30:38;28.50;60.90
12276;DHT22;6200;48.144;11.424;2023-07-20T12:33:04;28.30;61.80
12276;DHT22;6200;48.144;11.424;2023-07-20T12:35:30;28.10;62.40
12276;DHT22;6200;48.144;11.424;2023-07-20T12:37:57;28.00;61.80
12276;DHT22;6200;48.144;11.424;2023-07-20T12:40:23;28.00;66.10
12276;DHT22;6200;48.144;11.424;2023-07-20T12:42:49;28.10;64.80
12276;DHT22;6200;48.144;11.424;2023-07-20T12:45:14;28.30;63.10
12276;DHT22;6200;48.144;11.424;2023-07-20T12:47:40;28.50;63.50
12276;DHT22;6200;48.144;11.424;2023-07-20T12:50:08;28.50;63.40
12276;DHT22;6200;48.144;11.424;2023-07-20T12:52:37;28.40;61.30
12276;DHT22;6200;48.144;11.424;2023-07-20T12:55:07;28.40;61.50
12276;DHT22;6200;48.144;11.424;2023-07-20T12:57:34;28.40;60.90
12276;DHT22;6200;48.144;11.424;2023-07-20T13:00:00;28.40;61.60
12276;DHT22;6200;48.144;11.424;2023-07-20T13:02:27;28.30;62.10
12276;DHT22;6200;48.144;11.424;2023-07-20T13:04:52;28.40;60.80
12276;DHT22;6200;48.144;11.424;2023-07-20T13:07:38;28.50;60.70
12276;DHT22;6200;48.144;11.424;2023-07-20T13:10:05;27.50;59.80
12276;DHT22;6200;48.144;11.424;2023-07-20T13:12:32;28.60;62.00
12276;DHT22;6200;48.144;11.424;2023-07-20T13:14:58;28.70;60.20
12276;DHT22;6200;48.144;11.424;2023-07-20T13:17:28;28.80;59.80
12276;DHT22;6200;48.144;11.424;2023-07-20T13:19:54;29.10;59.70
12276;DHT22;6200;48.144;11.424;2023-07-20T13:22:20;29.60;57.80
12276;DHT22;6200;48.144;11.424;2023-07-20T13:24:46;29.90;57.50
12276;DHT22;6200;48.144;11.424;2023-07-20T13:27:15;30.10;56.50
12276;DHT22;6200;48.144;11.424;2023-07-20T13:29:41;30.20;56.90
12276;DHT22;6200;48.144;11.424;2023-07-20T13:32:07;30.00;58.40
12276;DHT22;6200;48.144;11.424;2023-07-20T13:34:33;30.00;56.80
12276;DHT22;6200;48.144;11.424;2023-07-20T13:36:59;30.30;54.40
12276;DHT22;6200;48.144;11.424;2023-07-20T13:39:25;30.50;55.90
12276;DHT22;6200;48.144;11.424;2023-07-20T13:41:52;30.50;53.70
12276;DHT22;6200;48.144;11.424;2023-07-20T13:44:18;30.80;54.00
12276;DHT22;6200;48.144;11.424;2023-07-20T13:46:46;31.20;53.60
12276;DHT22;6200;48.144;11.424;2023-07-20T13:49:11;31.30;54.20
12276;DHT22;6200;48.144;11.424;2023-07-20T13:51:37;31.60;54.50
12276;DHT22;6200;48.144;11.424;2023-07-20T13:54:02;31.70;53.50
12276;DHT22;6200;48.144;11.424;2023-07-20T13:56:28;31.50;54.10
12276;DHT22;6200;48.144;11.424;2023-07-20T13:58:53;31.20;55.40
12276;DHT22;6200;48.144;11.424;2023-07-20T14:01:19;30.80;55.00
12276;DHT22;6200;48.144;11.424;2023-07-20T14:03:45;30.80;54.80
12276;DHT22;6200;48.144;11.424;2023-07-20T14:06:10;30.80;55.10
12276;DHT22;6200;48.144;11.424;2023-07-20T14:08:38;30.90;53.60
12276;DHT22;6200;48.144;11.424;2023-07-20T14:11:04;30.80;53.80
12276;DHT22;6200;48.144;11.424;2023-07-20T14:13:29;30.60;55.60
12276;DHT22;6200;48.144;11.424;2023-07-20T14:15:56;30.60;54.30
12276;DHT22;6200;48.144;11.424;2023-07-20T14:18:21;30.60;54.70
12276;DHT22;6200;48.144;11.424;2023-07-20T14:20:47;30.50;55.60
12276;DHT22;6200;48.144;11.424;2023-07-20T14:23:12;30.40;54.80
12276;DHT22;6200;48.144;11.424;2023-07-20T14:25:38;30.40;55.20
12276;DHT22;6200;48.144;11.424;2023-07-20T14:28:03;30.10;55.20
12276;DHT22;6200;48.144;11.424;2023-07-20T14:30:29;29.90;55.70
12276;DHT22;6200;48.144;11.424;2023-07-20T14:32:54;29.90;55.10
12276;DHT22;6200;48.144;11.424;2023-07-20T14:35:20;29.70;55.30
12276;DHT22;6200;48.144;11.424;2023-07-20T14:37:45;29.50;55.30
12276;DHT22;6200;48.144;11.424;2023-07-20T14:40:12;29.30;56.00
12276;DHT22;6200;48.144;11.424;2023-07-20T14:42:38;29.20;58.80
12276;DHT22;6200;48.144;11.424;2023-07-20T14:45:04;29.10;57.60
12276;DHT22;6200;48.144;11.424;2023-07-20T14:47:31;29.00;57.30
12276;DHT22;6200;48.144;11.424;2023-07-20T14:50:03;28.90;57.00
12276;DHT22;6200;48.144;11.424;2023-07-20T14:52:29;28.60;57.70
12276;DHT22;6200;48.144;11.424;2023-07-20T14:54:55;28.60;59.10
12276;DHT22;6200;48.144;11.424;2023-07-20T14:57:20;28.40;57.30
12276;DHT22;6200;48.144;11.424;2023-07-20T14:59:49;28.20;57.80
12276;DHT22;6200;48.144;11.424;2023-07-20T15:02:14;28.20;58.60
12276;DHT22;6200;48.144;11.424;2023-07-20T15:04:49;28.10;58.90
12276;DHT22;6200;48.144;11.424;2023-07-20T15:07:17;28.10;58.40
12276;DHT22;6200;48.144;11.424;2023-07-20T15:09:44;28.00;59.50
12276;DHT22;6200;48.144;11.424;2023-07-20T15:12:10;28.10;59.80
12276;DHT22;6200;48.144;11.424;2023-07-20T15:14:35;28.00;59.90
12276;DHT22;6200;48.144;11.424;2023-07-20T15:17:01;28.00;59.70
12276;DHT22;6200;48.144;11.424;2023-07-20T15:19:28;27.90;60.00
12276;DHT22;6200;48.144;11.424;2023-07-20T15:21:54;27.70;62.00
12276;DHT22;6200;48.144;11.424;2023-07-20T15:24:19;27.60;59.60
12276;DHT22;6200;48.144;11.424;2023-07-20T15:26:45;27.50;58.50
12276;DHT22;6200;48.144;11.424;2023-07-20T15:29:10;27.50;60.00
12276;DHT22;6200;48.144;11.424;2023-07-20T15:31:36;27.30;61.80
12276;DHT22;6200;48.144;11.424;2023-07-20T15:34:02;27.30;61.80
12276;DHT22;6200;48.144;11.424;2023-07-20T15:36:27;27.20;62.50
12276;DHT22;6200;48.144;11.424;2023-07-20T15:38:53;27.10;61.70
12276;DHT22;6200;48.144;11.424;2023-07-20T15:41:18;27.00;62.20
12276;DHT22;6200;48.144;11.424;2023-07-20T15:43:44;27.00;61.90